sensor_id;sensor_type;location;lat;lon;timestamp;pressure;altitude;pressure_sealevel;temperature;humidity
13486;BME280;6815;59.336;17.998;2023-03-04T00:00:27;52119.09;;;-145.37;38.08
13486;BME280;6815;59.336;17.998;2023-03-04T00:02:52;52129.06;;;-145.37;38.66
13486;BME280;6815;59.336;17.998;2023-03-04T00:05:18;52125.09;;;-145.37;38.19
13486;BME280;6815;59.336;17.998;2023-03-04T00:07:43;52143.06;;;-145.37;38.04
13486;BME280;6815;59.336;17.998;2023-03-04T00:10:09;52151.03;;;-145.37;37.60
13486;BME280;6815;59.336;17.998;2023-03-04T00:12:35;52119.09;;;-145.37;37.76
13486;BME280;6815;59.336;17.998;2023-03-04T00:15:01;52105.13;;;-145.37;37.99
13486;BME280;6815;59.336;17.998;2023-03-04T00:17:26;52135.06;;;-145.37;37.78
13486;BME280;6815;59.336;17.998;2023-03-04T00:19:54;52141.06;;;-145.37;37.68
13486;BME280;6815;59.336;17.998;2023-03-04T00:22:20;52141.06;;;-145.37;37.54
13486;BME280;6815;59.336;17.998;2023-03-04T00:24:45;52143.06;;;-145.37;37.99
13486;BME280;6815;59.336;17.998;2023-03-04T00:27:11;52101.13;;;-145.37;38.39
13486;BME280;6815;59.336;17.998;2023-03-04T00:29:36;52180.97;;;-145.37;38.01
13486;BME280;6815;59.336;17.998;2023-03-04T00:32:02;52125.09;;;-145.37;38.42
13486;BME280;6815;59.336;17.998;2023-03-04T00:34:27;52123.09;;;-145.37;39.06
13486;BME280;6815;59.336;17.998;2023-03-04T00:36:52;52103.13;;;-145.37;37.81
13486;BME280;6815;59.336;17.998;2023-03-04T00:39:18;52135.06;;;-145.37;37.84
13486;BME280;6815;59.336;17.998;2023-03-04T00:41:44;52127.09;;;-145.37;37.58
13486;BME280;6815;59.336;17.998;2023-03-04T00:44:09;52113.09;;;-145.37;37.80
13486;BME280;6815;59.336;17.998;2023-03-04T00:46:35;52135.06;;;-145.37;37.63
13486;BME280;6815;59.336;17.998;2023-03-04T00:49:00;52139.06;;;-145.37;38.01
13486;BME280;6815;59.336;17.998;2023-03-04T00:51:26;52131.06;;;-145.37;38.80
13486;BME280;6815;59.336;17.998;2023-03-04T00:53:51;52089.16;;;-145.37;38.34
13486;BME280;6815;59.336;17.998;2023-03-04T00:56:17;52109.13;;;-145.37;38.58
13486;BME280;6815;59.336;17.998;2023-03-04T00:58:43;52103.13;;;-145.37;38.60
13486;BME280;6815;59.336;17.998;2023-03-04T01:01:08;52139.06;;;-145.37;39.10
13486;BME280;6815;59.336;17.998;2023-03-04T01:03:33;52097.13;;;-145.37;38.91
13486;BME280;6815;59.336;17.998;2023-03-04T01:05:59;52143.06;;;-145.37;38.89
13486;BME280;6815;59.336;17.998;2023-03-04T01:08:25;52143.06;;;-145.37;38.68
13486;BME280;6815;59.336;17.998;2023-03-04T01:10:51;52123.09;;;-145.37;38.76
13486;BME280;6815;59.336;17.998;2023-03-04T01:13:17;52121.09;;;-145.37;39.10
13486;BME280;6815;59.336;17.998;2023-03-04T01:15:42;52143.06;;;-145.37;39.07
13486;BME280;6815;59.336;17.998;2023-03-04T01:18:08;52123.09;;;-145.37;39.44
13486;BME280;6815;59.336;17.998;2023-03-04T01:20:33;52097.13;;;-145.37;39.21
13486;BME280;6815;59.336;17.998;2023-03-04T01:22:59;52133.06;;;-145.37;39.37
13486;BME280;6815;59.336;17.998;2023-03-04T01:25:24;52119.09;;;-145.37;39.61
13486;BME280;6815;59.336;17.998;2023-03-04T01:27:50;52103.13;;;-145.37;39.72
13486;BME280;6815;59.336;17.998;2023-03-04T01:30:15;52091.16;;;-145.37;38.91
13486;BME280;6815;59.336;17.998;2023-03-04T01:32:41;52125.09;;;-145.37;39.50
13486;BME280;6815;59.336;17.998;2023-03-04T01:35:06;52141.06;;;-145.37;39.57
13486;BME280;6815;59.336;17.998;2023-03-04T01:37:32;52147.03;;;-145.37;39.33
13486;BME280;6815;59.336;17.998;2023-03-04T01:39:57;52077.19;;;-145.37;38.92
13486;BME280;6815;59.336;17.998;2023-03-04T01:42:25;52133.06;;;-145.37;39.15
13486;BME280;6815;59.336;17.998;2023-03-04T01:44:52;52129.06;;;-145.37;39.24
13486;BME280;6815;59.336;17.998;2023-03-04T01:47:19;52085.16;;;-145.37;39.01
13486;BME280;6815;59.336;17.998;2023-03-04T01:49:53;52119.09;;;-145.37;38.83
13486;BME280;6815;59.336;17.998;2023-03-04T01:52:19;52091.16;;;-145.37;39.00
13486;BME280;6815;59.336;17.998;2023-03-04T01:54:44;52123.09;;;-145.37;39.23
13486;BME280;6815;59.336;17.998;2023-03-04T01:57:17;52109.13;;;-145.37;39.42
13486;BME280;6815;59.336;17.998;2023-03-04T01:59:43;52125.09;;;-145.37;40.25
13486;BME280;6815;59.336;17.998;2023-03-04T02:02:09;52135.06;;;-145.37;39.79
13486;BME280;6815;59.336;17.998;2023-03-04T02:04:35;52073.19;;;-145.37;39.65
13486;BME280;6815;59.336;17.998;2023-03-04T02:07:01;52121.09;;;-145.37;39.04
13486;BME280;6815;59.336;17.998;2023-03-04T02:09:29;52125.09;;;-145.37;38.52
13486;BME280;6815;59.336;17.998;2023-03-04T02:11:55;52105.13;;;-145.37;38.31
13486;BME280;6815;59.336;17.998;2023-03-04T02:14:20;52077.19;;;-145.37;38.79
13486;BME280;6815;59.336;17.998;2023-03-04T02:16:48;52091.16;;;-145.37;38.61
13486;BME280;6815;59.336;17.998;2023-03-04T02:22:00;52105.13;;;-145.37;37.75
13486;BME280;6815;59.336;17.998;2023-03-04T02:24:32;52127.09;;;-145.37;38.11
13486;BME280;6815;59.336;17.998;2023-03-04T02:27:00;52123.09;;;-145.37;38.07
13486;BME280;6815;59.336;17.998;2023-03-04T02:29:26;52099.13;;;-145.37;37.50
13486;BME280;6815;59.336;17.998;2023-03-04T02:31:53;52103.13;;;-145.37;37.54
13486;BME280;6815;59.336;17.998;2023-03-04T02:34:22;52121.09;;;-145.37;36.99
13486;BME280;6815;59.336;17.998;2023-03-04T02:36:50;52135.06;;;-145.37;36.83
13486;BME280;6815;59.336;17.998;2023-03-04T02:41:45;52101.13;;;-145.37;35.98
13486;BME280;6815;59.336;17.998;2023-03-04T02:46:45;52125.09;;;-145.37;36.45
13486;BME280;6815;59.336;17.998;2023-03-04T02:49:11;52093.16;;;-145.37;36.49
13486;BME280;6815;59.336;17.998;2023-03-04T02:51:37;52095.16;;;-145.37;35.77
13486;BME280;6815;59.336;17.998;2023-03-04T02:54:02;52109.13;;;-145.37;34.44
13486;BME280;6815;59.336;17.998;2023-03-04T02:56:27;52137.06;;;-145.37;34.12
13486;BME280;6815;59.336;17.998;2023-03-04T02:58:53;52119.09;;;-145.37;33.15
13486;BME280;6815;59.336;17.998;2023-03-04T03:01:18;52091.16;;;-145.37;33.47
13486;BME280;6815;59.336;17.998;2023-03-04T03:03:44;52123.09;;;-145.37;33.40
13486;BME280;6815;59.336;17.998;2023-03-04T03:06:09;52105.13;;;-145.37;33.08
13486;BME280;6815;59.336;17.998;2023-03-04T03:08:35;52105.13;;;-145.37;33.26
13486;BME280;6815;59.336;17.998;2023-03-04T03:11:00;52113.09;;;-145.37;32.94
13486;BME280;6815;59.336;17.998;2023-03-04T03:13:26;52111.13;;;-145.37;33.47
13486;BME280;6815;59.336;17.998;2023-03-04T03:15:52;52085.16;;;-145.37;32.87
13486;BME280;6815;59.336;17.998;2023-03-04T03:18:18;52109.13;;;-145.37;33.26
13486;BME280;6815;59.336;17.998;2023-03-04T03:20:43;52107.13;;;-145.37;33.32
13486;BME280;6815;59.336;17.998;2023-03-04T03:23:09;52127.09;;;-145.37;32.72
13486;BME280;6815;59.336;17.998;2023-03-04T03:25:34;52091.16;;;-145.37;32.75
13486;BME280;6815;59.336;17.998;2023-03-04T03:28:00;52075.19;;;-145.37;32.30
13486;BME280;6815;59.336;17.998;2023-03-04T03:30:25;52111.13;;;-145.37;32.13
13486;BME280;6815;59.336;17.998;2023-03-04T03:32:51;52113.09;;;-145.37;32.32
13486;BME280;6815;59.336;17.998;2023-03-04T03:35:16;52101.13;;;-145.37;32.19
13486;BME280;6815;59.336;17.998;2023-03-04T03:37:41;52131.06;;;-145.37;32.50
13486;BME280;6815;59.336;17.998;2023-03-04T03:40:07;52107.13;;;-145.37;32.76
13486;BME280;6815;59.336;17.998;2023-03-04T03:42:33;52121.09;;;-145.37;32.59
13486;BME280;6815;59.336;17.998;2023-03-04T03:44:58;52085.16;;;-145.37;32.94
13486;BME280;6815;59.336;17.998;2023-03-04T03:47:24;52085.16;;;-145.37;33.84
13486;BME280;6815;59.336;17.998;2023-03-04T03:49:49;52085.16;;;-145.37;33.95
13486;BME280;6815;59.336;17.998;2023-03-04T03:52:15;52067.19;;;-145.37;33.79
13486;BME280;6815;59.336;17.998;2023-03-04T03:54:40;52109.13;;;-145.37;33.53
13486;BME280;6815;59.336;17.998;2023-03-04T03:57:07;52111.13;;;-145.37;33.52
13486;BME280;6815;59.336;17.998;2023-03-04T03:59:32;52101.13;;;-145.37;33.74
13486;BME280;6815;59.336;17.998;2023-03-04T04:01:58;52091.16;;;-145.37;33.19
13486;BME280;6815;59.336;17.998;2023-03-04T04:04:23;52099.13;;;-145.37;32.82
13486;BME280;6815;59.336;17.998;2023-03-04T04:06:49;52093.16;;;-145.37;32.70
13486;BME280;6815;59.336;17.998;2023-03-04T04:09:14;52115.09;;;-145.37;33.58
13486;BME280;6815;59.336;17.998;2023-03-04T04:11:40;52099.13;;;-145.37;32.98
13486;BME280;6815;59.336;17.998;2023-03-04T04:14:05;52145.03;;;-145.37;33.45
13486;BME280;6815;59.336;17.998;2023-03-04T04:16:31;52097.13;;;-145.37;32.79
13486;BME280;6815;59.336;17.998;2023-03-04T04:18:56;52101.13;;;-145.37;33.19
13486;BME280;6815;59.336;17.998;2023-03-04T04:21:23;52073.19;;;-145.37;32.78
13486;BME280;6815;59.336;17.998;2023-03-04T04:23:48;52111.13;;;-145.37;32.43
13486;BME280;6815;59.336;17.998;2023-03-04T04:26:14;52093.16;;;-145.37;32.33
13486;BME280;6815;59.336;17.998;2023-03-04T04:28:39;52105.13;;;-145.37;32.65
13486;BME280;6815;59.336;17.998;2023-03-04T04:31:08;52091.16;;;-145.37;33.11
13486;BME280;6815;59.336;17.998;2023-03-04T04:33:35;52119.09;;;-145.37;32.04
13486;BME280;6815;59.336;17.998;2023-03-04T04:36:00;52109.13;;;-145.37;31.85
13486;BME280;6815;59.336;17.998;2023-03-04T04:38:26;52061.22;;;-145.37;32.39
13486;BME280;6815;59.336;17.998;2023-03-04T04:40:52;52129.06;;;-145.37;32.29
13486;BME280;6815;59.336;17.998;2023-03-04T04:43:17;52079.19;;;-145.37;32.02
13486;BME280;6815;59.336;17.998;2023-03-04T04:45:43;52103.13;;;-145.37;31.60
13486;BME280;6815;59.336;17.998;2023-03-04T04:48:10;52085.16;;;-145.37;32.04
13486;BME280;6815;59.336;17.998;2023-03-04T04:50:35;52167.00;;;-145.37;32.01
13486;BME280;6815;59.336;17.998;2023-03-04T04:53:00;52113.09;;;-145.37;31.72
13486;BME280;6815;59.336;17.998;2023-03-04T04:55:26;52087.16;;;-145.37;31.27
13486;BME280;6815;59.336;17.998;2023-03-04T04:57:52;52109.13;;;-145.37;31.77
13486;BME280;6815;59.336;17.998;2023-03-04T05:00:18;52107.13;;;-145.37;31.74
13486;BME280;6815;59.336;17.998;2023-03-04T05:02:43;52079.19;;;-145.37;31.54
13486;BME280;6815;59.336;17.998;2023-03-04T05:05:09;52137.06;;;-145.37;31.61
13486;BME280;6815;59.336;17.998;2023-03-04T05:07:35;52073.19;;;-145.37;32.40
13486;BME280;6815;59.336;17.998;2023-03-04T05:10:00;52119.09;;;-145.37;32.15
13486;BME280;6815;59.336;17.998;2023-03-04T05:12:26;52107.13;;;-145.37;32.51
13486;BME280;6815;59.336;17.998;2023-03-04T05:14:51;52073.19;;;-145.37;31.99
13486;BME280;6815;59.336;17.998;2023-03-04T05:17:17;52153.03;;;-145.37;31.96
13486;BME280;6815;59.336;17.998;2023-03-04T05:19:42;52085.16;;;-145.37;32.00
13486;BME280;6815;59.336;17.998;2023-03-04T05:22:08;52107.13;;;-145.37;31.93
13486;BME280;6815;59.336;17.998;2023-03-04T05:24:33;52143.06;;;-145.37;32.06
13486;BME280;6815;59.336;17.998;2023-03-04T05:26:59;52063.22;;;-145.37;32.17
13486;BME280;6815;59.336;17.998;2023-03-04T05:29:25;52089.16;;;-145.37;32.11
13486;BME280;6815;59.336;17.998;2023-03-04T05:31:50;52119.09;;;-145.37;32.46
13486;BME280;6815;59.336;17.998;2023-03-04T05:34:16;52107.13;;;-145.37;32.43
13486;BME280;6815;59.336;17.998;2023-03-04T05:36:41;52053.22;;;-145.37;32.91
13486;BME280;6815;59.336;17.998;2023-03-04T05:39:07;52045.25;;;-145.37;32.77
13486;BME280;6815;59.336;17.998;2023-03-04T05:41:32;52091.16;;;-145.37;32.32
13486;BME280;6815;59.336;17.998;2023-03-04T05:43:57;52121.09;;;-145.37;32.55
13486;BME280;6815;59.336;17.998;2023-03-04T05:46:24;52137.06;;;-145.37;32.43
13486;BME280;6815;59.336;17.998;2023-03-04T05:48:51;52053.22;;;-145.37;32.87
13486;BME280;6815;59.336;17.998;2023-03-04T05:51:17;52113.09;;;-145.37;32.51
13486;BME280;6815;59.336;17.998;2023-03-04T05:53:43;52091.16;;;-145.37;32.81
13486;BME280;6815;59.336;17.998;2023-03-04T05:56:14;52093.16;;;-145.37;32.72
13486;BME280;6815;59.336;17.998;2023-03-04T05:58:41;52055.22;;;-145.37;32.69
13486;BME280;6815;59.336;17.998;2023-03-04T06:01:06;52079.19;;;-145.37;32.84
13486;BME280;6815;59.336;17.998;2023-03-04T06:03:32;52125.09;;;-145.37;32.95
13486;BME280;6815;59.336;17.998;2023-03-04T06:05:58;52055.22;;;-145.37;33.30
13486;BME280;6815;59.336;17.998;2023-03-04T06:08:23;52053.22;;;-145.37;33.49
13486;BME280;6815;59.336;17.998;2023-03-04T06:10:52;52103.13;;;-145.37;33.39
13486;BME280;6815;59.336;17.998;2023-03-04T06:13:18;52091.16;;;-145.37;33.89
13486;BME280;6815;59.336;17.998;2023-03-04T06:15:43;52051.22;;;-145.37;34.15
13486;BME280;6815;59.336;17.998;2023-03-04T06:18:09;52081.16;;;-145.37;33.66
13486;BME280;6815;59.336;17.998;2023-03-04T06:20:34;52143.06;;;-145.37;33.95
13486;BME280;6815;59.336;17.998;2023-03-04T06:23:00;52101.13;;;-145.37;33.79
13486;BME280;6815;59.336;17.998;2023-03-04T06:25:25;52067.19;;;-145.37;35.02
13486;BME280;6815;59.336;17.998;2023-03-04T06:27:51;52059.22;;;-145.37;34.43
13486;BME280;6815;59.336;17.998;2023-03-04T06:30:17;52105.13;;;-145.37;34.19
13486;BME280;6815;59.336;17.998;2023-03-04T06:32:43;52079.19;;;-145.37;34.52
13486;BME280;6815;59.336;17.998;2023-03-04T06:35:12;52107.13;;;-145.37;34.61
13486;BME280;6815;59.336;17.998;2023-03-04T06:37:39;52089.16;;;-145.37;34.51
13486;BME280;6815;59.336;17.998;2023-03-04T06:40:05;52049.22;;;-145.37;35.00
13486;BME280;6815;59.336;17.998;2023-03-04T06:42:32;52085.16;;;-145.37;34.90
13486;BME280;6815;59.336;17.998;2023-03-04T06:44:58;52089.16;;;-145.37;34.89
13486;BME280;6815;59.336;17.998;2023-03-04T06:47:23;52123.09;;;-145.37;34.86
13486;BME280;6815;59.336;17.998;2023-03-04T06:49:49;52063.22;;;-145.37;35.11
13486;BME280;6815;59.336;17.998;2023-03-04T06:52:14;52051.22;;;-145.37;35.25
13486;BME280;6815;59.336;17.998;2023-03-04T06:54:40;52069.19;;;-145.37;35.31
13486;BME280;6815;59.336;17.998;2023-03-04T06:57:05;52097.13;;;-145.37;35.63
13486;BME280;6815;59.336;17.998;2023-03-04T06:59:31;52107.13;;;-145.37;35.44
13486;BME280;6815;59.336;17.998;2023-03-04T07:01:56;52101.13;;;-145.37;35.58
13486;BME280;6815;59.336;17.998;2023-03-04T07:04:22;52067.19;;;-145.37;35.54
13486;BME280;6815;59.336;17.998;2023-03-04T07:06:48;52071.19;;;-145.37;35.88
13486;BME280;6815;59.336;17.998;2023-03-04T07:09:14;52087.16;;;-145.37;35.83
13486;BME280;6815;59.336;17.998;2023-03-04T07:11:40;52125.09;;;-145.37;35.74
13486;BME280;6815;59.336;17.998;2023-03-04T07:14:05;52075.19;;;-145.37;36.47
13486;BME280;6815;59.336;17.998;2023-03-04T07:16:31;52125.09;;;-145.37;35.89
13486;BME280;6815;59.336;17.998;2023-03-04T07:18:57;52109.13;;;-145.37;36.46
13486;BME280;6815;59.336;17.998;2023-03-04T07:21:22;52089.16;;;-145.37;36.00
13486;BME280;6815;59.336;17.998;2023-03-04T07:23:48;52091.16;;;-145.37;36.25
13486;BME280;6815;59.336;17.998;2023-03-04T07:26:13;52081.16;;;-145.37;35.87
13486;BME280;6815;59.336;17.998;2023-03-04T07:28:39;52065.19;;;-145.37;36.10
13486;BME280;6815;59.336;17.998;2023-03-04T07:31:40;52097.13;;;-145.37;35.94
13486;BME280;6815;59.336;17.998;2023-03-04T07:34:09;52077.19;;;-145.37;36.52
13486;BME280;6815;59.336;17.998;2023-03-04T07:36:35;52184.97;;;-145.37;36.26
13486;BME280;6815;59.336;17.998;2023-03-04T07:39:02;52119.09;;;-145.37;36.55
13486;BME280;6815;59.336;17.998;2023-03-04T07:41:27;52097.13;;;-145.37;36.13
13486;BME280;6815;59.336;17.998;2023-03-04T07:44:12;52083.16;;;-145.37;36.57
13486;BME280;6815;59.336;17.998;2023-03-04T07:46:38;52119.09;;;-145.37;36.76
13486;BME280;6815;59.336;17.998;2023-03-04T07:49:03;52069.19;;;-145.37;36.44
13486;BME280;6815;59.336;17.998;2023-03-04T07:51:29;52085.16;;;-145.37;36.33
13486;BME280;6815;59.336;17.998;2023-03-04T07:53:59;52095.16;;;-145.37;36.14
13486;BME280;6815;59.336;17.998;2023-03-04T07:56:28;52077.19;;;-145.37;36.50
13486;BME280;6815;59.336;17.998;2023-03-04T07:58:54;52081.16;;;-145.37;36.51
13486;BME280;6815;59.336;17.998;2023-03-04T08:01:26;52063.22;;;-145.37;35.93
13486;BME280;6815;59.336;17.998;2023-03-04T08:03:52;52063.22;;;-145.37;36.02
13486;BME280;6815;59.336;17.998;2023-03-04T08:06:19;51995.34;;;-145.37;35.72
13486;BME280;6815;59.336;17.998;2023-03-04T08:08:46;52099.13;;;-145.37;35.82
13486;BME280;6815;59.336;17.998;2023-03-04T08:11:14;52109.13;;;-145.37;36.24
13486;BME280;6815;59.336;17.998;2023-03-04T08:13:40;52103.13;;;-145.37;36.04
13486;BME280;6815;59.336;17.998;2023-03-04T08:16:06;52101.13;;;-145.37;36.15
13486;BME280;6815;59.336;17.998;2023-03-04T08:18:33;52101.13;;;-145.37;36.04
13486;BME280;6815;59.336;17.998;2023-03-04T08:20:58;52063.22;;;-145.37;36.01
13486;BME280;6815;59.336;17.998;2023-03-04T08:23:24;52099.13;;;-145.37;35.57
13486;BME280;6815;59.336;17.998;2023-03-04T08:25:50;52087.16;;;-145.37;35.91
13486;BME280;6815;59.336;17.998;2023-03-04T08:28:16;52093.16;;;-145.37;35.52
13486;BME280;6815;59.336;17.998;2023-03-04T08:30:42;52065.19;;;-145.37;35.81
13486;BME280;6815;59.336;17.998;2023-03-04T08:33:09;52091.16;;;-145.37;35.64
13486;BME280;6815;59.336;17.998;2023-03-04T08:35:39;52093.16;;;-145.37;36.33
13486;BME280;6815;59.336;17.998;2023-03-04T08:38:05;52041.25;;;-145.37;36.02
13486;BME280;6815;59.336;17.998;2023-03-04T08:40:31;52075.19;;;-145.37;35.87
13486;BME280;6815;59.336;17.998;2023-03-04T08:42:57;52089.16;;;-145.37;35.69
13486;BME280;6815;59.336;17.998;2023-03-04T08:45:23;52071.19;;;-145.37;35.67
13486;BME280;6815;59.336;17.998;2023-03-04T08:47:49;52079.19;;;-145.37;36.17
13486;BME280;6815;59.336;17.998;2023-03-04T08:50:15;52135.06;;;-145.37;35.63
13486;BME280;6815;59.336;17.998;2023-03-04T08:52:41;52079.19;;;-145.37;36.13
13486;BME280;6815;59.336;17.998;2023-03-04T08:55:06;52061.22;;;-145.37;36.18
13486;BME280;6815;59.336;17.998;2023-03-04T08:57:32;52109.13;;;-145.37;36.26
13486;BME280;6815;59.336;17.998;2023-03-04T08:59:57;52115.09;;;-145.37;36.33
13486;BME280;6815;59.336;17.998;2023-03-04T09:02:23;52099.13;;;-145.37;36.18
13486;BME280;6815;59.336;17.998;2023-03-04T09:04:48;52113.09;;;-145.37;36.36
13486;BME280;6815;59.336;17.998;2023-03-04T09:07:14;52093.16;;;-145.37;36.78
13486;BME280;6815;59.336;17.998;2023-03-04T09:09:39;52083.16;;;-145.37;37.67
13486;BME280;6815;59.336;17.998;2023-03-04T09:12:05;52099.13;;;-145.37;38.06
13486;BME280;6815;59.336;17.998;2023-03-04T09:14:31;52095.16;;;-145.37;37.95
13486;BME280;6815;59.336;17.998;2023-03-04T09:17:00;52091.16;;;-145.37;38.10
13486;BME280;6815;59.336;17.998;2023-03-04T09:19:26;52075.19;;;-145.37;38.28
13486;BME280;6815;59.336;17.998;2023-03-04T09:21:52;52125.09;;;-145.37;38.56
13486;BME280;6815;59.336;17.998;2023-03-04T09:24:19;52097.13;;;-145.37;38.86
13486;BME280;6815;59.336;17.998;2023-03-04T09:26:49;52101.13;;;-145.37;38.36
13486;BME280;6815;59.336;17.998;2023-03-04T09:29:15;52133.06;;;-145.37;38.07
13486;BME280;6815;59.336;17.998;2023-03-04T09:31:40;52113.09;;;-145.37;37.82
13486;BME280;6815;59.336;17.998;2023-03-04T09:34:06;52095.16;;;-145.37;38.18
13486;BME280;6815;59.336;17.998;2023-03-04T09:36:31;52105.13;;;-145.37;38.10
13486;BME280;6815;59.336;17.998;2023-03-04T09:39:01;52127.09;;;-145.37;37.52
13486;BME280;6815;59.336;17.998;2023-03-04T09:41:43;52053.22;;;-145.37;37.86
13486;BME280;6815;59.336;17.998;2023-03-04T09:44:31;52119.09;;;-145.37;37.86
13486;BME280;6815;59.336;17.998;2023-03-04T09:47:01;52087.16;;;-145.37;37.40
13486;BME280;6815;59.336;17.998;2023-03-04T09:49:27;52099.13;;;-145.37;37.39
13486;BME280;6815;59.336;17.998;2023-03-04T09:52:17;52077.19;;;-145.37;37.79
13486;BME280;6815;59.336;17.998;2023-03-04T09:57:42;52149.03;;;-145.37;37.65
13486;BME280;6815;59.336;17.998;2023-03-04T10:00:34;52119.09;;;-145.37;38.07
13486;BME280;6815;59.336;17.998;2023-03-04T10:05:57;52125.09;;;-145.37;37.99
13486;BME280;6815;59.336;17.998;2023-03-04T10:11:43;52079.19;;;-145.37;38.02
13486;BME280;6815;59.336;17.998;2023-03-04T10:16:58;52109.13;;;-145.37;38.94
13486;BME280;6815;59.336;17.998;2023-03-04T10:20:42;52123.09;;;-145.37;38.73
13486;BME280;6815;59.336;17.998;2023-03-04T10:22:42;52071.19;;;-145.37;38.68
13486;BME280;6815;59.336;17.998;2023-03-04T10:27:49;52093.16;;;-145.37;38.84
13486;BME280;6815;59.336;17.998;2023-03-04T10:33:00;52107.13;;;-145.37;39.17
13486;BME280;6815;59.336;17.998;2023-03-04T10:35:32;52091.16;;;-145.37;39.47
13486;BME280;6815;59.336;17.998;2023-03-04T10:38:01;52079.19;;;-145.37;39.65
13486;BME280;6815;59.336;17.998;2023-03-04T10:40:28;52103.13;;;-145.37;39.68
13486;BME280;6815;59.336;17.998;2023-03-04T10:42:54;52107.13;;;-145.37;39.85
13486;BME280;6815;59.336;17.998;2023-03-04T10:45:24;52113.09;;;-145.37;39.64
13486;BME280;6815;59.336;17.998;2023-03-04T10:47:52;52129.06;;;-145.37;39.69
13486;BME280;6815;59.336;17.998;2023-03-04T10:50:23;52125.09;;;-145.37;39.50
13486;BME280;6815;59.336;17.998;2023-03-04T10:52:50;52095.16;;;-145.37;39.81
13486;BME280;6815;59.336;17.998;2023-03-04T10:55:21;52109.13;;;-145.37;39.80
13486;BME280;6815;59.336;17.998;2023-03-04T10:57:57;52105.13;;;-145.37;40.11
13486;BME280;6815;59.336;17.998;2023-03-04T11:03:29;52125.09;;;-145.37;40.05
13486;BME280;6815;59.336;17.998;2023-03-04T11:06:18;52121.09;;;-145.37;39.89
13486;BME280;6815;59.336;17.998;2023-03-04T11:08:52;52109.13;;;-145.37;39.95
13486;BME280;6815;59.336;17.998;2023-03-04T11:11:37;52089.16;;;-145.37;39.73
13486;BME280;6815;59.336;17.998;2023-03-04T11:14:14;52109.13;;;-145.37;39.80
13486;BME280;6815;59.336;17.998;2023-03-04T11:16:51;52123.09;;;-145.37;39.66
13486;BME280;6815;59.336;17.998;2023-03-04T11:19:19;52121.09;;;-145.37;39.73
13486;BME280;6815;59.336;17.998;2023-03-04T11:21:46;52155.03;;;-145.37;39.79
13486;BME280;6815;59.336;17.998;2023-03-04T11:24:15;52099.13;;;-145.37;39.52
13486;BME280;6815;59.336;17.998;2023-03-04T11:26:54;52095.16;;;-145.37;39.57
13486;BME280;6815;59.336;17.998;2023-03-04T11:29:21;52097.13;;;-145.37;39.61
13486;BME280;6815;59.336;17.998;2023-03-04T11:31:52;52224.91;;;-145.37;39.63
13486;BME280;6815;59.336;17.998;2023-03-04T11:34:36;52107.13;;;-145.37;39.66
13486;BME280;6815;59.336;17.998;2023-03-04T11:39:57;52135.06;;;-145.37;39.55
13486;BME280;6815;59.336;17.998;2023-03-04T11:48:37;52147.03;;;-145.37;39.45
13486;BME280;6815;59.336;17.998;2023-03-04T11:56:44;52133.06;;;-145.37;39.50
13486;BME280;6815;59.336;17.998;2023-03-04T12:07:34;52123.09;;;-145.37;39.34
13486;BME280;6815;59.336;17.998;2023-03-04T12:10:29;52111.13;;;-145.37;39.21
13486;BME280;6815;59.336;17.998;2023-03-04T12:16:14;52117.09;;;-145.37;38.75
13486;BME280;6815;59.336;17.998;2023-03-04T12:19:09;52121.09;;;-145.37;39.10
13486;BME280;6815;59.336;17.998;2023-03-04T12:29:57;52065.19;;;-145.37;38.75
13486;BME280;6815;59.336;17.998;2023-03-04T12:37:56;52173.00;;;-145.37;39.24
13486;BME280;6815;59.336;17.998;2023-03-04T12:45:59;52133.06;;;-145.37;38.76
13486;BME280;6815;59.336;17.998;2023-03-04T12:56:34;52139.06;;;-145.37;38.78
13486;BME280;6815;59.336;17.998;2023-03-04T12:59:02;52109.13;;;-145.37;38.78
13486;BME280;6815;59.336;17.998;2023-03-04T13:05:01;52133.06;;;-145.37;39.02
13486;BME280;6815;59.336;17.998;2023-03-04T13:08:07;52141.06;;;-145.37;39.53
13486;BME280;6815;59.336;17.998;2023-03-04T13:10:29;52133.06;;;-145.37;39.34
13486;BME280;6815;59.336;17.998;2023-03-04T13:12:59;52143.06;;;-145.37;40.04
13486;BME280;6815;59.336;17.998;2023-03-04T13:17:52;52125.09;;;-145.37;40.40
13486;BME280;6815;59.336;17.998;2023-03-04T13:23:20;52135.06;;;-145.37;40.65
13486;BME280;6815;59.336;17.998;2023-03-04T13:25:49;52105.13;;;-145.37;41.00
13486;BME280;6815;59.336;17.998;2023-03-04T13:28:36;52099.13;;;-145.37;41.39
13486;BME280;6815;59.336;17.998;2023-03-04T13:41:18;52121.09;;;-145.37;47.49
13486;BME280;6815;59.336;17.998;2023-03-04T13:43:55;52105.13;;;-145.37;48.07
13486;BME280;6815;59.336;17.998;2023-03-04T13:51:29;52129.06;;;-145.37;49.71
13486;BME280;6815;59.336;17.998;2023-03-04T13:56:35;52095.16;;;-145.37;49.23
13486;BME280;6815;59.336;17.998;2023-03-04T14:04:18;52107.13;;;-145.37;49.00
13486;BME280;6815;59.336;17.998;2023-03-04T14:06:51;52129.06;;;-145.37;49.00
13486;BME280;6815;59.336;17.998;2023-03-04T14:09:26;52129.06;;;-145.37;49.23
13486;BME280;6815;59.336;17.998;2023-03-04T14:11:54;52101.13;;;-145.37;48.87
13486;BME280;6815;59.336;17.998;2023-03-04T14:14:46;52149.03;;;-145.37;49.08
13486;BME280;6815;59.336;17.998;2023-03-04T14:17:26;52083.16;;;-145.37;49.12
13486;BME280;6815;59.336;17.998;2023-03-04T14:19:52;52145.03;;;-145.37;49.40
13486;BME280;6815;59.336;17.998;2023-03-04T14:22:27;52103.13;;;-145.37;49.30
13486;BME280;6815;59.336;17.998;2023-03-04T14:27:37;52095.16;;;-145.37;49.40
13486;BME280;6815;59.336;17.998;2023-03-04T14:30:05;52093.16;;;-145.37;49.21
13486;BME280;6815;59.336;17.998;2023-03-04T14:32:32;52133.06;;;-145.37;49.28
13486;BME280;6815;59.336;17.998;2023-03-04T14:35:02;52129.06;;;-145.37;49.06
13486;BME280;6815;59.336;17.998;2023-03-04T14:37:52;52145.03;;;-145.37;48.78
13486;BME280;6815;59.336;17.998;2023-03-04T14:40:25;52083.16;;;-145.37;47.66